Time;durP1;ratioP1;P1;durP2;ratioP2;P2;SDS_P1;SDS_P2;PMS_P1;PMS_P2;Temp;Humidity;BMP_temperature;BMP_pressure;BME280_temperature;BME280_humidity;BME280_pressure;Samples;Min_cycle;Max_cycle;Signal;HPM_P1;HPM_P2
2021/11/26 00:00:33;;;;;;;227.83;106.00;;;;;;;-1.35;89.07;98083.45;3968013;87;21108;-81
2021/11/26 00:06:36;;;;;;;276.27;119.57;;;;;;;-1.26;89.22;98091.48;3910165;89;21127;-81
2021/11/26 00:12:38;;;;;;;291.75;121.62;;;;;;;-1.15;89.16;98073.37;3910830;90;21055;-82
2021/11/26 00:18:54;;;;;;;293.10;122.60;;;;;;;-1.15;89.15;98081.42;3904430;90;21575;-82
2021/11/26 00:24:57;;;;;;;273.87;121.05;;;;;;;-1.08;89.24;98074.98;3897817;90;21090;-82
2021/11/26 00:30:58;;;;;;;264.23;117.70;;;;;;;-1.05;89.44;98078.38;3913126;89;21649;-82
2021/11/26 00:37:00;;;;;;;265.83;116.73;;;;;;;-0.99;89.58;98089.75;3908165;90;21144;-82
2021/11/26 00:43:03;;;;;;;252.67;115.03;;;;;;;-0.90;89.64;98088.61;3905129;90;21101;-82
2021/11/26 00:49:04;;;;;;;240.73;113.83;;;;;;;-0.85;89.45;98067.48;3898846;90;21076;-82
2021/11/26 00:55:13;;;;;;;228.17;109.97;;;;;;;-0.87;89.11;98073.19;3899135;90;21106;-82
2021/11/26 01:01:16;;;;;;;207.57;97.42;;;;;;;-0.80;89.79;98062.70;3909691;88;21581;-82
2021/11/26 01:07:24;;;;;;;216.93;100.67;;;;;;;-0.78;89.23;98057.80;3912451;90;21107;-81
2021/11/26 01:13:26;;;;;;;210.38;98.05;;;;;;;-0.69;89.48;98039.73;3902800;89;21118;-81
2021/11/26 01:19:28;;;;;;;204.40;99.40;;;;;;;-0.59;90.09;98025.93;3905698;90;21540;-83
2021/11/26 01:25:34;;;;;;;193.20;92.53;;;;;;;-0.55;90.19;98018.77;3913419;90;21069;-82
2021/11/26 01:46:00;;;;;;;173.28;83.65;;;;;;;-0.32;90.65;97993.72;3918121;90;21145;-82
2021/11/26 01:52:03;;;;;;;171.32;83.42;;;;;;;-0.25;90.35;97987.27;3915075;90;21098;-81
2021/11/26 01:58:05;;;;;;;176.27;83.10;;;;;;;-0.20;90.49;97997.27;3908075;88;21082;-81
2021/11/26 02:04:07;;;;;;;172.82;81.72;;;;;;;-0.16;90.40;98004.89;3919111;88;21547;-82
2021/11/26 02:10:48;;;;;;;169.70;82.57;;;;;;;-0.09;90.60;98020.51;3907324;90;21072;-82
2021/11/26 02:16:58;;;;;;;186.60;93.27;;;;;;;-0.18;90.57;97976.76;3853678;91;21212;-82
2021/11/26 02:23:19;;;;;;;186.18;87.27;;;;;;;-0.18;90.57;97976.76;3851067;91;21095;-82
2021/11/26 02:29:30;;;;;;;164.82;84.47;;;;;;;-0.04;90.98;97979.95;3840472;91;21388;-81
2021/11/26 02:35:37;;;;;;;188.27;90.57;;;;;;;-0.04;91.01;97978.06;3922319;90;21638;-82
2021/11/26 02:41:49;;;;;;;217.13;102.02;;;;;;;-0.04;91.25;97951.71;3914508;90;21916;-82
2021/11/26 02:48:02;;;;;;;184.78;90.40;;;;;;;-0.04;91.25;97951.71;3920599;90;21886;-82
2021/11/26 02:54:04;;;;;;;185.85;89.30;;;;;;;0.07;91.17;97955.56;3905471;90;21655;-82
2021/11/26 03:06:31;;;;;;;187.92;91.02;;;;;;;0.16;91.37;97931.27;3906236;90;21020;-81
2021/11/26 03:12:39;;;;;;;192.13;90.30;;;;;;;0.16;91.68;97917.81;3902631;90;21112;-82
2021/11/26 03:18:52;;;;;;;182.95;87.00;;;;;;;0.13;91.73;97896.92;3894644;90;21077;-82
2021/11/26 03:24:54;;;;;;;190.32;92.15;;;;;;;0.22;91.48;97908.41;3896897;90;21059;-82
2021/11/26 03:30:56;;;;;;;179.32;89.07;;;;;;;0.27;91.94;97908.20;3899391;90;21121;-82
2021/11/26 03:36:58;;;;;;;198.50;93.07;;;;;;;0.33;92.18;97912.23;3873741;90;21103;-82
2021/11/26 03:42:59;;;;;;;172.87;84.32;;;;;;;0.40;92.23;97905.73;3907932;90;21137;-82
2021/11/26 03:49:01;;;;;;;177.45;83.58;;;;;;;0.39;91.75;97898.78;3903473;90;21085;-82
2021/11/26 03:55:11;;;;;;;159.72;76.65;;;;;;;0.43;92.19;97872.75;3893164;90;21032;-82
2021/11/26 04:01:12;;;;;;;148.85;73.25;;;;;;;0.47;92.37;97865.59;3894932;90;21504;-82
2021/11/26 04:07:13;;;;;;;172.75;77.70;;;;;;;0.53;92.51;97870.42;3902342;90;21082;-83
2021/11/26 04:13:17;;;;;;;155.93;73.83;;;;;;;0.57;92.35;97855.14;3917168;88;21098;-82
2021/11/26 04:19:18;;;;;;;159.87;74.42;;;;;;;0.55;92.51;97853.92;3917915;88;21592;-82
2021/11/26 04:25:21;;;;;;;153.90;75.67;;;;;;;0.60;92.43;97853.13;3904437;90;21688;-82
2021/11/26 04:31:22;;;;;;;166.55;75.72;;;;;;;0.66;92.61;97845.63;3890239;89;21483;-82
2021/11/26 04:37:27;;;;;;;169.02;80.97;;;;;;;0.70;92.58;97826.30;3896575;90;21122;-84
2021/11/26 04:43:29;;;;;;;155.30;76.77;;;;;;;0.73;92.78;97830.45;3899900;90;22203;-83
2021/11/26 04:49:30;;;;;;;174.70;88.03;;;;;;;0.65;92.39;97835.95;3892526;90;22329;-83
2021/11/26 04:55:31;;;;;;;175.47;82.27;;;;;;;0.70;92.76;97816.88;3898622;89;21030;-83
2021/11/26 05:01:38;;;;;;;157.67;76.42;;;;;;;0.71;92.64;97813.84;3884888;90;21654;-84
2021/11/26 05:07:40;;;;;;;148.05;73.92;;;;;;;0.82;93.07;97797.44;3892948;90;22003;-84
2021/11/26 05:13:43;;;;;;;144.57;71.92;;;;;;;0.97;93.20;97790.56;3900173;90;21583;-84
2021/11/26 05:19:46;;;;;;;149.23;71.25;;;;;;;0.98;92.60;97796.95;3893837;90;21078;-84
2021/11/26 05:25:51;;;;;;;145.50;72.37;;;;;;;1.04;93.56;97781.31;3893813;90;21584;-83
2021/11/26 05:31:52;;;;;;;160.03;75.10;;;;;;;1.10;93.50;97789.38;3904676;90;21050;-83
2021/11/26 05:37:57;;;;;;;147.07;74.97;;;;;;;1.19;93.64;97788.70;3912807;90;21066;-83
2021/11/26 05:44:07;;;;;;;134.00;65.92;;;;;;;1.28;93.52;97783.94;3894657;90;21189;-82
2021/11/26 05:50:12;;;;;;;142.50;69.40;;;;;;;1.25;93.53;97769.22;3927012;87;29157;-83
2021/11/26 05:56:14;;;;;;;130.78;63.65;;;;;;;1.27;93.59;97764.27;3948606;89;21033;-82
2021/11/26 06:02:17;;;;;;;123.45;60.63;;;;;;;1.25;93.55;97758.44;3966004;85;21151;-82
2021/11/26 06:08:19;;;;;;;132.87;61.45;;;;;;;1.31;93.70;97756.28;4134423;85;21096;-81
2021/11/26 06:14:20;;;;;;;134.47;63.28;;;;;;;1.33;93.76;97751.34;4136929;85;21039;-82
2021/11/26 06:20:22;;;;;;;129.05;62.93;;;;;;;1.40;93.89;97743.43;4134630;85;21116;-82
2021/11/26 06:26:27;;;;;;;131.80;65.15;;;;;;;1.52;94.27;97744.15;4131106;85;22248;-81
2021/11/26 06:32:28;;;;;;;132.37;66.47;;;;;;;1.53;93.91;97742.25;4114543;85;21063;-82
2021/11/26 06:38:30;;;;;;;130.18;66.12;;;;;;;1.52;94.09;97746.05;4088942;85;21074;-81
2021/11/26 06:44:31;;;;;;;155.37;76.72;;;;;;;1.36;94.00;97743.91;4111511;85;21095;-82
2021/11/26 06:50:32;;;;;;;146.85;72.82;;;;;;;1.39;94.49;97742.64;4123514;85;21054;-81
2021/11/26 06:56:36;;;;;;;144.97;72.47;;;;;;;1.38;94.69;97745.68;4112446;85;21174;-81
2021/11/26 07:02:37;;;;;;;139.50;73.02;;;;;;;1.55;94.74;97741.34;4114767;85;20996;-81
2021/11/26 07:24:01;;;;;;;103.00;55.55;;;;;;;1.99;95.21;97710.44;4549072;76;23459;-92
2021/11/26 07:29:58;;;;;;;123.13;61.98;;;;;;;1.92;95.01;97712.98;4464059;78;21014;-91
2021/11/26 07:36:00;;;;;;;117.97;60.65;;;;;;;1.88;95.41;97705.94;4460932;78;21020;-89
2021/11/26 07:42:09;;;;;;;131.18;63.02;;;;;;;2.01;95.77;97706.03;4386477;79;21017;-91
2021/11/26 07:48:11;;;;;;;118.08;58.40;;;;;;;2.05;95.55;97694.19;4312712;81;21120;-89
2021/11/26 07:54:12;;;;;;;124.85;62.80;;;;;;;2.14;95.64;97695.36;4392544;79;21033;-89
2021/11/26 08:00:15;;;;;;;127.72;66.72;;;;;;;2.00;95.90;97678.28;4390017;79;21025;-87
2021/11/26 08:06:16;;;;;;;141.37;68.25;;;;;;;2.09;96.05;97667.28;4394660;79;21085;-87
2021/11/26 08:12:20;;;;;;;130.20;64.85;;;;;;;2.10;95.69;97658.07;4390260;79;21055;-89
2021/11/26 08:18:22;;;;;;;115.52;63.68;;;;;;;2.04;95.86;97648.66;4391453;80;21074;-88
2021/11/26 08:24:24;;;;;;;117.95;61.48;;;;;;;2.13;96.44;97641.93;4314525;81;21386;-87
2021/11/26 08:30:26;;;;;;;108.45;58.08;;;;;;;2.14;96.14;97646.21;4307093;81;21089;-88
2021/11/26 08:36:27;;;;;;;116.30;58.52;;;;;;;2.31;96.95;97645.81;4315871;81;21688;-87
2021/11/26 08:42:29;;;;;;;110.88;57.30;;;;;;;2.41;96.48;97620.17;4309241;81;21019;-87
2021/11/26 08:48:31;;;;;;;120.67;57.27;;;;;;;2.47;96.49;97628.20;4336175;81;21067;-87
2021/11/26 08:54:34;;;;;;;112.42;58.30;;;;;;;2.51;96.64;97616.33;4315288;81;21066;-88
2021/11/26 09:00:36;;;;;;;128.70;62.03;;;;;;;2.54;96.56;97603.47;4306696;81;21053;-87
2021/11/26 09:06:38;;;;;;;115.72;60.40;;;;;;;2.57;96.67;97601.98;4324880;81;21046;-87
2021/11/26 09:12:40;;;;;;;122.40;61.25;;;;;;;2.60;96.73;97602.63;4313736;81;21562;-86
2021/11/26 09:18:41;;;;;;;117.50;59.73;;;;;;;2.65;96.96;97592.30;4318973;81;21061;-87
2021/11/26 09:24:43;;;;;;;113.10;59.42;;;;;;;2.76;97.04;97583.83;4365184;79;21010;-91
2021/11/26 09:30:48;;;;;;;122.67;59.00;;;;;;;2.82;96.77;97574.28;4372701;79;21046;-86
2021/11/26 09:36:49;;;;;;;118.25;58.08;;;;;;;2.81;96.83;97558.43;4369239;79;21050;-88
2021/11/26 09:42:51;;;;;;;118.02;57.53;;;;;;;2.78;96.77;97543.72;4366208;79;21078;-86
2021/11/26 09:48:52;;;;;;;123.38;58.55;;;;;;;2.79;96.89;97525.01;4370739;79;21101;-86
2021/11/26 09:54:54;;;;;;;111.25;55.45;;;;;;;2.81;97.15;97511.92;4371432;79;20994;-86
2021/11/26 10:00:59;;;;;;;110.55;54.42;;;;;;;2.91;97.02;97510.55;4368923;79;21056;-88
2021/11/26 10:07:02;;;;;;;115.10;57.35;;;;;;;2.91;96.85;97498.39;4356190;79;21102;-87
2021/11/26 10:13:08;;;;;;;119.82;58.70;;;;;;;3.04;97.37;97492.98;4368657;79;21051;-86
2021/11/26 10:19:11;;;;;;;129.55;60.40;;;;;;;2.97;96.97;97471.27;4362378;79;21090;-89
2021/11/26 10:25:19;;;;;;;121.72;58.90;;;;;;;2.97;97.00;97455.83;4392075;79;21077;-86
2021/11/26 10:31:35;;;;;;;125.20;58.17;;;;;;;2.95;96.91;97439.19;4392191;79;21094;-87
2021/11/26 10:37:37;;;;;;;118.35;56.33;;;;;;;2.90;96.91;97417.08;4385078;79;21079;-87
2021/11/26 10:43:54;;;;;;;123.22;56.58;;;;;;;2.91;97.19;97400.50;4387204;79;21031;-87
2021/11/26 10:50:16;;;;;;;103.97;52.73;;;;;;;2.96;97.15;97393.44;4337326;81;21106;-87
2021/11/26 11:02:36;;;;;;;110.10;50.78;;;;;;;3.04;97.13;97372.69;4380170;79;21006;-87
2021/11/26 11:08:37;;;;;;;106.60;49.88;;;;;;;3.01;97.23;97364.75;4357208;79;21031;-88
2021/11/26 11:14:41;;;;;;;97.35;47.05;;;;;;;3.01;97.35;97340.98;4377986;79;21028;-87
2021/11/26 11:20:44;;;;;;;102.78;48.73;;;;;;;3.03;97.38;97321.13;4377232;79;21077;-88
2021/11/26 11:26:48;;;;;;;97.78;49.85;;;;;;;3.02;97.50;97308.77;4356892;80;21059;-87
2021/11/26 11:32:50;;;;;;;107.43;51.15;;;;;;;3.05;97.52;97299.33;4278911;81;21097;-87
2021/11/26 11:38:59;;;;;;;112.95;51.88;;;;;;;3.09;97.71;97293.41;4356077;80;22483;-89
2021/11/26 11:45:14;;;;;;;114.30;54.73;;;;;;;3.14;97.70;97279.58;4279792;81;21549;-87
2021/11/26 11:51:29;;;;;;;114.40;54.60;;;;;;;3.15;97.84;97275.72;4271680;81;21085;-87
2021/11/26 11:57:30;;;;;;;110.70;52.98;;;;;;;3.11;97.77;97257.34;4306499;81;21075;-87
2021/11/26 12:03:37;;;;;;;123.47;54.30;;;;;;;3.09;97.85;97248.80;4355099;80;21066;-90
2021/11/26 12:09:38;;;;;;;111.42;53.58;;;;;;;3.12;98.05;97240.52;4276084;81;21057;-87
2021/11/26 12:15:42;;;;;;;105.95;51.70;;;;;;;3.18;98.06;97233.64;4282072;81;21336;-87
2021/11/26 12:21:47;;;;;;;104.32;50.63;;;;;;;3.20;98.14;97216.48;4324556;79;21109;-86
2021/11/26 12:28:05;;;;;;;102.12;50.75;;;;;;;3.22;98.14;97211.48;4373956;79;21069;-88
2021/11/26 12:34:11;;;;;;;107.25;51.40;;;;;;;3.25;98.09;97197.23;4469367;78;21054;-87
2021/11/26 12:40:15;;;;;;;113.57;53.30;;;;;;;3.24;98.23;97184.87;4465352;78;21022;-85
2021/11/26 12:46:36;;;;;;;111.35;49.90;;;;;;;3.29;98.41;97178.34;4451395;78;21087;-86
2021/11/26 12:52:37;;;;;;;114.97;55.08;;;;;;;3.28;98.29;97169.44;4365524;80;21053;-87
2021/11/26 12:58:43;;;;;;;112.12;54.33;;;;;;;3.30;98.30;97160.95;4361783;81;21091;-87
2021/11/26 13:04:56;;;;;;;110.67;52.53;;;;;;;3.30;98.38;97153.62;4324053;81;21021;-87
2021/11/26 13:11:02;;;;;;;104.87;51.20;;;;;;;3.35;98.38;97143.05;4358649;80;21073;-87
2021/11/26 13:17:04;;;;;;;103.17;50.00;;;;;;;3.38;98.50;97132.27;4309471;81;21043;-88
2021/11/26 13:23:09;;;;;;;101.53;49.95;;;;;;;3.47;98.68;97122.48;4443247;78;21594;-86
2021/11/26 13:29:11;;;;;;;98.00;48.13;;;;;;;3.54;98.49;97100.91;4451847;78;22517;-86
2021/11/26 13:35:13;;;;;;;93.78;48.20;;;;;;;3.56;98.38;97095.88;4433627;78;21052;-86
2021/11/26 13:41:22;;;;;;;91.60;45.23;;;;;;;3.57;98.35;97081.98;4442923;78;21056;-88
2021/11/26 13:47:23;;;;;;;95.55;46.28;;;;;;;3.52;98.43;97078.86;4451666;78;21029;-86
2021/11/26 13:53:25;;;;;;;114.25;54.35;;;;;;;3.51;98.69;97074.61;4444856;78;21024;-87
2021/11/26 13:59:31;;;;;;;113.62;54.95;;;;;;;3.53;98.61;97066.31;4351958;80;21070;-87
2021/11/26 14:05:36;;;;;;;100.02;45.75;;;;;;;3.53;98.58;97056.05;4346357;80;21046;-86
2021/11/26 14:11:42;;;;;;;86.50;43.83;;;;;;;3.62;98.76;97051.87;4342937;80;21016;-85
2021/11/26 14:17:43;;;;;;;98.42;46.30;;;;;;;3.69;98.97;97038.41;4355549;80;21039;-86
2021/11/26 14:24:02;;;;;;;97.27;47.83;;;;;;;3.83;99.13;97022.26;4335478;80;21575;-86
2021/11/26 14:30:25;;;;;;;96.90;47.00;;;;;;;3.90;98.95;97022.28;4318069;81;21664;-86
2021/11/26 14:36:29;;;;;;;91.25;45.38;;;;;;;3.82;98.25;97011.22;4329267;81;21529;-87
2021/11/26 14:42:32;;;;;;;89.28;43.98;;;;;;;3.67;98.13;96994.70;4330885;81;21036;-89
2021/11/26 14:48:41;;;;;;;98.12;50.50;;;;;;;3.65;98.55;96991.59;4312118;81;21055;-85
2021/11/26 14:54:45;;;;;;;129.03;59.80;;;;;;;3.59;98.35;96984.99;4324726;81;21070;-87
2021/11/26 15:00:49;;;;;;;131.35;60.92;;;;;;;3.56;98.49;96975.50;4307347;81;21574;-86
2021/11/26 15:06:51;;;;;;;106.78;52.95;;;;;;;3.57;98.86;96963.54;4317639;81;21059;-86
2021/11/26 15:12:52;;;;;;;89.58;46.42;;;;;;;3.56;98.58;96951.93;4307535;81;21107;-87
2021/11/26 15:18:53;;;;;;;93.22;47.17;;;;;;;3.55;98.86;96946.90;4319478;81;20993;-86
2021/11/26 15:24:55;;;;;;;90.75;46.10;;;;;;;3.60;98.84;96939.22;4305615;81;21070;-86
2021/11/26 15:30:57;;;;;;;86.53;44.35;;;;;;;3.63;98.86;96920.09;4299566;81;21046;-86
2021/11/26 15:36:59;;;;;;;97.95;46.83;;;;;;;3.68;98.85;96911.61;4307547;81;21064;-86
2021/11/26 15:43:01;;;;;;;90.83;45.78;;;;;;;3.76;99.08;96895.61;4312778;81;21078;-85
2021/11/26 15:49:04;;;;;;;83.42;43.58;;;;;;;3.76;98.82;96885.55;4286891;81;33478;-85
2021/11/26 15:55:07;;;;;;;90.22;45.73;;;;;;;3.80;98.55;96873.38;4176125;83;21068;-87
2021/11/26 16:01:15;;;;;;;93.25;47.27;;;;;;;3.73;98.31;96866.61;4207842;83;21973;-86
2021/11/26 16:07:23;;;;;;;88.03;44.30;;;;;;;3.63;98.54;96865.98;4247651;81;36649;-86
2021/11/26 16:13:23;;;;;;;92.00;45.83;;;;;;;3.47;98.65;96852.77;4363780;81;21050;-86
2021/11/26 16:19:25;;;;;;;91.50;46.33;;;;;;;3.40;98.77;96842.50;4378095;79;21538;-87
2021/11/26 16:25:27;;;;;;;91.65;44.65;;;;;;;3.37;99.06;96839.20;4374076;79;21001;-87
2021/11/26 16:31:42;;;;;;;79.25;42.53;;;;;;;3.49;99.84;96830.19;4364632;79;1822597;-89
2021/11/26 16:37:38;;;;;;;165.15;72.20;;;;;;;3.51;99.15;96827.84;4258851;82;21125;-86
2021/11/26 16:57:07;;;;;;;107.60;51.53;;;;;;;4.14;99.46;96788.77;4447847;77;24863;-85
2021/11/26 17:03:08;;;;;;;94.50;48.52;;;;;;;4.06;98.93;96783.72;4429123;78;21085;-89
2021/11/26 17:13:17;;;;;;;102.42;48.60;;;;;;;4.07;99.42;96769.05;4545820;75;22626;-87
2021/11/26 17:19:22;;;;;;;94.15;49.15;;;;;;;3.98;99.64;96763.22;4518777;77;21021;-87
2021/11/26 17:25:26;;;;;;;81.45;45.63;;;;;;;4.03;99.36;96749.30;4515758;77;21072;-87
2021/11/26 17:31:27;;;;;;;82.10;45.40;;;;;;;4.01;99.07;96752.39;4527714;77;21065;-86
2021/11/26 17:37:28;;;;;;;81.47;46.00;;;;;;;4.02;99.11;96732.30;4520390;77;20994;-88
2021/11/26 17:43:31;;;;;;;84.83;43.58;;;;;;;3.90;98.83;96718.38;4519864;77;21027;-86
2021/11/26 17:49:33;;;;;;;72.82;39.15;;;;;;;3.81;99.10;96720.09;4521653;77;21013;-87
2021/11/26 17:55:34;;;;;;;56.13;31.45;;;;;;;3.67;99.23;96716.59;4391603;77;10000227;-88
2021/11/26 18:01:37;;;;;;;67.67;37.17;;;;;;;3.69;99.56;96706.16;4515928;77;21213;-88
2021/11/26 18:07:43;;;;;;;69.10;37.58;;;;;;;3.79;100.00;96700.75;4507151;77;21049;-87
2021/11/26 18:13:44;;;;;;;65.47;36.50;;;;;;;3.84;99.63;96679.30;4513851;77;21018;-87
2021/11/26 18:19:46;;;;;;;65.08;34.70;;;;;;;3.87;99.76;96671.78;4513892;77;21069;-86
2021/11/26 18:25:48;;;;;;;59.70;33.45;;;;;;;3.94;99.77;96661.72;4512513;77;21681;-87
2021/11/26 18:31:50;;;;;;;62.20;36.25;;;;;;;3.98;99.41;96654.36;4507409;77;21590;-89
2021/11/26 18:37:56;;;;;;;65.00;35.17;;;;;;;3.87;99.51;96645.47;4513196;77;21041;-88
2021/11/26 18:43:59;;;;;;;92.35;49.20;;;;;;;3.89;99.64;96639.67;4512889;77;21599;-89
2021/11/26 18:50:00;;;;;;;104.05;57.35;;;;;;;3.93;99.62;96626.92;4509776;77;21371;-87
2021/11/26 18:56:02;;;;;;;115.62;59.63;;;;;;;3.90;99.49;96623.64;4516148;77;21038;-87
2021/11/26 19:02:04;;;;;;;113.20;60.58;;;;;;;3.93;99.69;96615.50;4474135;77;21043;-87
2021/11/26 19:08:08;;;;;;;131.35;68.80;;;;;;;3.85;99.52;96605.87;4511069;77;21527;-88
2021/11/26 19:14:11;;;;;;;131.60;68.15;;;;;;;3.80;99.40;96591.94;4525097;77;21076;-87
2021/11/26 19:20:12;;;;;;;100.40;50.20;;;;;;;3.84;99.55;96588.06;4536128;77;20995;-88
2021/11/26 19:26:14;;;;;;;96.90;49.42;;;;;;;3.81;99.49;96584.78;4534372;77;21627;-88
2021/11/26 19:32:16;;;;;;;74.22;40.43;;;;;;;3.78;99.78;96583.42;4523730;77;21665;-86
2021/11/26 19:38:17;;;;;;;80.53;45.88;;;;;;;3.84;99.76;96583.22;4522707;77;20986;-86
2021/11/26 19:44:19;;;;;;;83.62;46.13;;;;;;;3.82;99.78;96584.97;4522194;77;20996;-87
2021/11/26 19:50:22;;;;;;;78.40;42.85;;;;;;;3.78;99.81;96572.03;4520177;77;21067;-86
2021/11/26 19:56:24;;;;;;;83.92;47.53;;;;;;;3.76;99.57;96572.23;4518573;77;21042;-87
2021/11/26 20:02:26;;;;;;;79.30;44.90;;;;;;;3.75;99.70;96576.88;4522381;77;21017;-85
2021/11/26 20:08:27;;;;;;;88.42;49.83;;;;;;;3.72;99.65;96566.04;4522488;77;21080;-89
2021/11/26 20:14:32;;;;;;;93.62;48.52;;;;;;;3.65;99.70;96569.52;4525651;77;21048;-87
2021/11/26 20:20:33;;;;;;;93.90;47.53;;;;;;;3.57;99.70;96562.56;4518823;77;21070;-87
2021/11/26 20:26:35;;;;;;;80.30;43.58;;;;;;;3.50;99.69;96558.53;4520389;77;21036;-89
2021/11/26 20:32:37;;;;;;;76.77;43.45;;;;;;;3.52;99.97;96559.48;4506750;77;21025;-88
2021/11/26 20:38:39;;;;;;;79.42;44.35;;;;;;;3.56;99.96;96549.43;4524959;77;21029;-85
2021/11/26 20:44:40;;;;;;;92.67;47.95;;;;;;;3.55;99.90;96556.02;4496462;77;21033;-88
2021/11/26 20:50:47;;;;;;;90.75;46.75;;;;;;;3.53;99.95;96538.81;4529019;77;21017;-87
2021/11/26 20:56:49;;;;;;;90.38;46.73;;;;;;;3.50;99.97;96545.57;4521755;77;21402;-87
2021/11/26 21:02:52;;;;;;;79.50;42.17;;;;;;;3.48;100.00;96551.38;4517800;77;21018;-87
2021/11/26 21:08:53;;;;;;;78.87;41.68;;;;;;;3.47;100.00;96547.70;4524044;77;21543;-87
2021/11/26 21:14:54;;;;;;;75.45;39.70;;;;;;;3.42;100.00;96546.16;4512868;77;21287;-86
2021/11/26 21:20:56;;;;;;;65.90;36.23;;;;;;;3.42;100.00;96541.33;4520395;77;21040;-88
2021/11/26 21:26:57;;;;;;;61.42;32.60;;;;;;;3.42;100.00;96535.34;4525292;77;21084;-90
2021/11/26 21:32:59;;;;;;;52.98;29.95;;;;;;;3.43;100.00;96532.07;4524648;77;21350;-86
2021/11/26 21:39:07;;;;;;;47.25;26.05;;;;;;;3.38;100.00;96536.50;4524109;77;21802;-86
2021/11/26 21:45:17;;;;;;;43.00;23.80;;;;;;;3.36;100.00;96539.59;4526141;77;21027;-87
2021/11/26 21:51:18;;;;;;;45.12;24.98;;;;;;;3.32;100.00;96546.92;4527731;77;21035;-86
2021/11/26 21:57:19;;;;;;;38.25;20.00;;;;;;;3.26;99.97;96557.18;4532916;77;21031;-87
2021/11/26 22:03:21;;;;;;;39.08;20.50;;;;;;;3.16;99.90;96557.36;4533312;77;21081;-88
2021/11/26 22:09:23;;;;;;;35.30;18.67;;;;;;;3.01;99.73;96552.51;4530730;77;21001;-87
2021/11/26 22:15:24;;;;;;;37.33;19.32;;;;;;;2.92;99.81;96566.20;4516877;77;21017;-86
2021/11/26 22:21:26;;;;;;;38.25;19.02;;;;;;;2.81;99.75;96566.18;4517471;77;21034;-87
2021/11/26 22:27:28;;;;;;;35.65;19.45;;;;;;;2.75;99.78;96575.81;4516538;77;21033;-86
2021/11/26 22:33:30;;;;;;;37.63;19.50;;;;;;;2.78;99.98;96581.02;4516495;77;21646;-86
2021/11/26 22:39:32;;;;;;;47.20;22.32;;;;;;;2.74;100.00;96588.36;4518047;77;21046;-86
2021/11/26 22:45:36;;;;;;;48.63;22.87;;;;;;;2.77;100.00;96584.89;4487864;77;21026;-86
2021/11/26 22:51:40;;;;;;;44.33;21.62;;;;;;;2.71;99.69;96587.77;4518376;77;21577;-89
2021/11/26 22:57:42;;;;;;;39.33;20.52;;;;;;;2.57;99.67;96596.58;4514117;77;21100;-88
2021/11/26 23:03:45;;;;;;;45.75;22.42;;;;;;;2.46;99.28;96611.20;4513198;77;20962;-86
2021/11/26 23:09:46;;;;;;;51.65;27.35;;;;;;;2.35;99.50;96601.69;4510239;77;21550;-88
2021/11/26 23:15:48;;;;;;;69.32;31.90;;;;;;;2.26;99.33;96602.61;4516986;77;21060;-88
2021/11/26 23:21:53;;;;;;;69.25;32.67;;;;;;;2.14;99.37;96606.99;4512932;77;21004;-87
2021/11/26 23:27:55;;;;;;;62.55;32.63;;;;;;;2.09;99.47;96613.30;4514257;77;20997;-86
2021/11/26 23:33:56;;;;;;;71.35;33.18;;;;;;;2.08;99.46;96619.30;4503943;77;21021;-87
2021/11/26 23:39:58;;;;;;;71.53;33.25;;;;;;;2.03;99.35;96621.00;4509564;77;21008;-87
2021/11/26 23:46:01;;;;;;;65.85;29.63;;;;;;;1.96;99.34;96620.94;4513143;77;22276;-87
2021/11/26 23:52:03;;;;;;;71.28;34.73;;;;;;;1.94;99.54;96634.05;4512190;77;21533;-86
2021/11/26 23:58:05;;;;;;;70.55;33.58;;;;;;;1.87;99.47;96635.33;4508075;77;21030;-86
